createdAt,value
2022-12-25T00:01:19.957Z,6.94
2022-12-25T00:03:47.026Z,6.93
2022-12-25T00:06:14.472Z,6.87
2022-12-25T00:08:41.600Z,6.79
2022-12-25T00:11:19.911Z,6.80
2022-12-25T00:13:47.968Z,6.93
2022-12-25T00:16:21.560Z,6.95
2022-12-25T00:18:48.812Z,6.90
2022-12-25T00:21:16.019Z,6.84
2022-12-25T00:23:43.613Z,6.84
2022-12-25T00:26:17.258Z,6.75
2022-12-25T00:28:44.374Z,6.69
2022-12-25T00:31:13.950Z,6.66
2022-12-25T00:33:43.508Z,6.63
2022-12-25T00:36:12.068Z,6.60
2022-12-25T00:38:40.148Z,6.77
2022-12-25T00:41:12.126Z,6.66
2022-12-25T00:43:39.468Z,6.52
2022-12-25T00:46:07.080Z,6.42
2022-12-25T00:48:35.686Z,6.35
2022-12-25T00:51:06.197Z,6.29
2022-12-25T00:53:33.477Z,6.18
2022-12-25T00:56:03.446Z,6.10
2022-12-25T00:58:32.506Z,6.09
2022-12-25T01:00:59.464Z,6.03
2022-12-25T01:03:27.401Z,6.01
2022-12-25T01:06:00.681Z,6.07
2022-12-25T01:08:29.411Z,6.17
2022-12-25T01:10:58.309Z,6.15
2022-12-25T01:13:25.950Z,6.12
2022-12-25T01:15:52.868Z,6.13
2022-12-25T01:18:20.997Z,6.10
2022-12-25T01:20:48.342Z,6.08
2022-12-25T01:23:15.643Z,6.10
2022-12-25T01:25:42.844Z,6.26
2022-12-25T01:28:09.763Z,6.31
2022-12-25T01:30:36.679Z,6.27
2022-12-25T01:33:03.800Z,6.40
2022-12-25T01:35:30.911Z,6.49
2022-12-25T01:37:57.891Z,6.49
2022-12-25T01:40:24.868Z,6.59
2022-12-25T01:42:51.714Z,6.66
2022-12-25T01:45:32.637Z,6.76
2022-12-25T01:48:02.664Z,6.90
2022-12-25T01:50:29.788Z,6.81
2022-12-25T01:52:57.909Z,6.95
2022-12-25T01:55:25.603Z,6.93
2022-12-25T01:57:52.532Z,6.97
2022-12-25T02:00:19.523Z,6.95
2022-12-25T02:02:46.828Z,7.07
2022-12-25T02:05:26.138Z,7.22
2022-12-25T02:07:53.865Z,7.26
2022-12-25T02:10:20.872Z,7.35
2022-12-25T02:12:49.173Z,7.61
2022-12-25T02:15:20.024Z,7.73
2022-12-25T02:17:58.185Z,7.76
2022-12-25T02:20:40.482Z,7.64
2022-12-25T02:23:49.264Z,7.56
2022-12-25T02:26:18.827Z,7.70
2022-12-25T02:29:23.280Z,7.74
2022-12-25T02:31:52.991Z,7.74
2022-12-25T02:34:33.419Z,7.60
2022-12-25T02:37:10.514Z,7.50
2022-12-25T02:40:02.283Z,7.47
2022-12-25T02:42:53.840Z,7.45
2022-12-25T02:46:08.691Z,7.42
2022-12-25T02:49:05.348Z,7.74
2022-12-25T02:51:55.388Z,7.67
2022-12-25T02:54:47.764Z,7.71
2022-12-25T02:57:36.099Z,7.82
2022-12-25T03:00:24.378Z,7.99
2022-12-25T03:03:11.851Z,7.91
2022-12-25T03:05:59.774Z,7.80
2022-12-25T03:08:34.827Z,7.99
2022-12-25T03:11:26.668Z,7.96
2022-12-25T03:14:18.306Z,8.11
2022-12-25T03:16:53.189Z,8.14
2022-12-25T03:19:41.793Z,8.03
2022-12-25T03:22:32.417Z,8.13
2022-12-25T03:25:17.902Z,8.16
2022-12-25T03:27:49.277Z,8.13
2022-12-25T03:30:35.061Z,8.11
2022-12-25T03:33:29.824Z,8.29
2022-12-25T03:36:07.028Z,8.27
2022-12-25T03:39:38.377Z,8.30
2022-12-25T03:42:26.136Z,8.37
2022-12-25T03:45:29.609Z,8.27
2022-12-25T03:48:15.967Z,8.26
2022-12-25T03:51:10.253Z,8.35
2022-12-25T03:54:06.335Z,8.16
2022-12-25T03:56:53.775Z,8.10
2022-12-25T03:59:41.097Z,7.85
2022-12-25T04:02:26.690Z,7.82
2022-12-25T04:05:12.352Z,7.82
2022-12-25T04:07:58.313Z,7.73
2022-12-25T04:10:43.781Z,7.76
2022-12-25T04:13:29.139Z,7.88
2022-12-25T04:16:14.960Z,7.90
2022-12-25T04:19:00.483Z,7.75
2022-12-25T04:21:45.777Z,7.88
2022-12-25T04:24:31.627Z,8.04
2022-12-25T04:27:17.095Z,8.01
2022-12-25T04:30:02.467Z,7.96
2022-12-25T04:32:47.773Z,7.97
2022-12-25T04:35:33.049Z,7.99
2022-12-25T04:37:59.964Z,7.88
2022-12-25T04:40:26.779Z,8.03
2022-12-25T04:42:53.995Z,7.95
2022-12-25T04:45:20.832Z,8.01
2022-12-25T04:47:47.754Z,7.71
2022-12-25T04:50:14.603Z,7.50
2022-12-25T04:52:41.931Z,7.50
2022-12-25T04:55:10.541Z,7.50
2022-12-25T04:57:37.861Z,7.55
2022-12-25T05:00:07.415Z,7.35
2022-12-25T05:02:34.440Z,7.28
2022-12-25T05:05:01.494Z,7.09
2022-12-25T05:07:28.599Z,7.09
2022-12-25T05:09:55.517Z,7.17
2022-12-25T05:12:22.508Z,7.21
2022-12-25T05:14:49.368Z,7.39
2022-12-25T05:17:16.227Z,7.45
2022-12-25T05:19:43.332Z,7.54
2022-12-25T05:22:10.290Z,7.58
2022-12-25T05:24:37.142Z,7.52
2022-12-25T05:27:03.995Z,7.60
2022-12-25T05:29:31.059Z,7.68
2022-12-25T05:31:57.977Z,7.75
2022-12-25T05:34:24.971Z,7.79
2022-12-25T05:36:51.936Z,7.84
2022-12-25T05:39:19.037Z,7.85
2022-12-25T05:41:45.851Z,7.84
2022-12-25T05:44:13.843Z,7.89
2022-12-25T05:46:40.691Z,7.87
2022-12-25T05:49:07.836Z,7.84
2022-12-25T05:51:34.740Z,7.84
2022-12-25T05:54:01.591Z,7.98
2022-12-25T05:56:28.664Z,8.04
2022-12-25T05:58:55.991Z,8.03
2022-12-25T06:01:26.129Z,7.95
2022-12-25T06:03:53.060Z,7.79
2022-12-25T06:06:19.978Z,7.92
2022-12-25T06:08:47.106Z,8.04
2022-12-25T06:11:15.247Z,8.03
2022-12-25T06:13:43.835Z,8.04
2022-12-25T06:16:12.962Z,8.06
2022-12-25T06:18:43.063Z,8.10
2022-12-25T06:21:11.771Z,8.05
2022-12-25T06:23:39.790Z,7.85
2022-12-25T06:26:08.962Z,7.93
2022-12-25T06:28:36.442Z,8.08
2022-12-25T06:31:12.254Z,8.17
2022-12-25T06:33:39.781Z,8.16
2022-12-25T06:36:14.444Z,8.20
2022-12-25T06:38:41.911Z,8.13
2022-12-25T06:41:18.273Z,8.24
2022-12-25T06:43:57.220Z,8.32
2022-12-25T06:46:25.945Z,8.30
2022-12-25T06:48:52.862Z,8.11
2022-12-25T06:51:22.122Z,8.06
2022-12-25T06:53:50.158Z,8.01
2022-12-25T06:56:20.176Z,8.17
2022-12-25T06:58:48.066Z,8.16
2022-12-25T07:01:23.644Z,8.10
2022-12-25T07:03:54.647Z,8.09
2022-12-25T07:06:21.640Z,8.10
2022-12-25T07:08:48.808Z,8.15
2022-12-25T07:11:15.864Z,7.96
2022-12-25T07:13:42.691Z,8.03
2022-12-25T07:16:11.256Z,8.15
2022-12-25T07:18:38.231Z,8.18
2022-12-25T07:21:09.981Z,8.01
2022-12-25T07:23:37.643Z,8.02
2022-12-25T07:26:05.099Z,8.10
2022-12-25T07:28:32.209Z,8.01
2022-12-25T07:31:04.540Z,8.07
2022-12-25T07:33:31.925Z,8.13
2022-12-25T07:35:58.864Z,8.28
2022-12-25T07:38:25.813Z,8.56
2022-12-25T07:40:52.925Z,8.63
2022-12-25T07:43:20.307Z,8.16
2022-12-25T07:45:47.439Z,8.21
2022-12-25T07:48:16.830Z,8.16
2022-12-25T07:50:44.065Z,8.11
2022-12-25T07:53:11.126Z,7.92
2022-12-25T07:55:38.001Z,7.97
2022-12-25T07:58:07.171Z,8.22
2022-12-25T08:00:34.424Z,8.29
2022-12-25T08:03:01.591Z,7.99
2022-12-25T08:05:28.743Z,7.95
2022-12-25T08:07:57.956Z,8.22
2022-12-25T08:10:25.736Z,8.47
2022-12-25T08:12:56.159Z,8.52
2022-12-25T08:15:23.251Z,8.60
2022-12-25T08:17:50.162Z,8.31
2022-12-25T08:20:17.099Z,8.55
2022-12-25T08:22:43.972Z,8.47
2022-12-25T08:25:10.941Z,8.72
2022-12-25T08:27:37.790Z,8.27
2022-12-25T08:30:05.073Z,8.16
2022-12-25T08:32:33.759Z,8.37
2022-12-25T08:35:00.643Z,8.37
2022-12-25T08:37:30.425Z,8.68
2022-12-25T08:39:57.336Z,8.65
2022-12-25T08:42:24.339Z,8.79
2022-12-25T08:44:51.322Z,8.70
2022-12-25T08:47:18.423Z,8.60
2022-12-25T08:49:45.279Z,8.72
2022-12-25T08:52:12.459Z,8.71
2022-12-25T08:54:39.346Z,8.83
2022-12-25T08:57:06.220Z,8.83
2022-12-25T08:59:33.086Z,8.56
2022-12-25T09:01:59.990Z,8.54
2022-12-25T09:04:27.125Z,8.64
2022-12-25T09:06:54.174Z,8.67
2022-12-25T09:09:21.020Z,8.78
2022-12-25T09:11:49.239Z,9.10
2022-12-25T09:14:16.129Z,8.93
2022-12-25T09:16:42.921Z,8.99
2022-12-25T09:19:09.836Z,9.21
2022-12-25T09:21:39.604Z,9.22
2022-12-25T09:24:06.680Z,9.03
2022-12-25T09:26:33.560Z,8.94
2022-12-25T09:29:00.935Z,9.26
2022-12-25T09:31:27.897Z,9.29
2022-12-25T09:33:58.067Z,9.40
2022-12-25T09:36:25.327Z,9.46
2022-12-25T09:38:52.917Z,9.28
2022-12-25T09:41:40.421Z,9.36
2022-12-25T09:44:12.025Z,9.43
2022-12-25T09:46:53.234Z,9.67
2022-12-25T09:49:51.266Z,9.15
2022-12-25T09:52:30.644Z,9.47
2022-12-25T09:55:22.599Z,9.50
2022-12-25T09:57:56.022Z,9.36
2022-12-25T10:00:28.944Z,9.28
2022-12-25T10:03:04.697Z,9.34
2022-12-25T10:05:53.000Z,9.40
2022-12-25T10:08:25.955Z,9.70
2022-12-25T10:11:06.611Z,9.73
2022-12-25T10:13:55.353Z,9.74
2022-12-25T10:16:22.173Z,9.65
2022-12-25T10:19:06.107Z,9.83
2022-12-25T10:21:33.322Z,9.92
2022-12-25T10:24:19.050Z,10.00
2022-12-25T10:26:46.037Z,10.07
2022-12-25T10:29:19.593Z,9.68
2022-12-25T10:31:48.732Z,9.85
2022-12-25T10:34:16.478Z,9.76
2022-12-25T10:36:47.019Z,9.67
2022-12-25T10:39:23.276Z,10.00
2022-12-25T10:42:19.589Z,10.23
2022-12-25T10:45:08.131Z,9.79
2022-12-25T10:47:42.013Z,10.01
2022-12-25T10:50:23.210Z,10.26
2022-12-25T10:53:00.351Z,9.87
2022-12-25T10:55:29.491Z,10.07
2022-12-25T10:57:58.138Z,10.22
2022-12-25T11:00:30.848Z,10.20
2022-12-25T11:02:58.344Z,10.10
2022-12-25T11:05:31.464Z,10.31
2022-12-25T11:08:00.968Z,10.35
2022-12-25T11:10:34.926Z,10.38
2022-12-25T11:13:04.281Z,10.34
2022-12-25T11:15:34.135Z,10.28
2022-12-25T11:18:01.190Z,10.40
2022-12-25T11:20:29.558Z,10.52
2022-12-25T11:22:56.440Z,10.31
2022-12-25T11:25:28.247Z,10.42
2022-12-25T11:28:03.586Z,10.27
2022-12-25T11:30:33.893Z,10.44
2022-12-25T11:33:06.020Z,10.49
2022-12-25T11:35:43.092Z,10.34
2022-12-25T11:38:09.976Z,10.49
2022-12-25T11:40:54.963Z,10.32
2022-12-25T11:43:28.053Z,10.47
2022-12-25T11:46:05.865Z,10.62
2022-12-25T11:48:41.567Z,10.52
2022-12-25T11:51:10.454Z,10.45
2022-12-25T11:54:08.311Z,10.36
2022-12-25T11:56:37.795Z,10.43
2022-12-25T11:59:14.943Z,10.49
2022-12-25T12:01:50.386Z,10.59
2022-12-25T12:04:42.902Z,10.70
2022-12-25T12:07:30.757Z,10.87
2022-12-25T12:10:10.366Z,11.00
2022-12-25T12:12:48.304Z,11.00
2022-12-25T12:15:41.467Z,11.11
2022-12-25T12:18:26.637Z,11.08
2022-12-25T12:21:11.725Z,10.95
2022-12-25T12:24:02.559Z,10.90
2022-12-25T12:26:34.837Z,10.80
2022-12-25T12:29:03.756Z,10.96
2022-12-25T12:31:43.601Z,10.87
2022-12-25T12:34:44.344Z,10.77
2022-12-25T12:37:25.176Z,10.68
2022-12-25T12:39:54.900Z,10.48
2022-12-25T12:42:39.087Z,10.45
2022-12-25T12:45:16.071Z,10.49
2022-12-25T12:47:49.040Z,10.69
2022-12-25T12:50:32.611Z,10.78
2022-12-25T12:53:05.810Z,10.82
2022-12-25T12:55:35.337Z,11.10
2022-12-25T12:58:05.344Z,11.23
2022-12-25T13:00:54.821Z,11.49
2022-12-25T13:03:30.952Z,11.47
2022-12-25T13:06:09.923Z,11.55
2022-12-25T13:09:06.098Z,11.38
2022-12-25T13:11:38.978Z,11.08
2022-12-25T13:14:06.045Z,11.19
2022-12-25T13:16:39.425Z,11.32
2022-12-25T13:19:11.566Z,11.33
2022-12-25T13:21:38.725Z,11.57
2022-12-25T13:24:18.703Z,11.75
2022-12-25T13:26:45.419Z,11.77
2022-12-25T13:29:34.718Z,11.68
2022-12-25T13:32:04.794Z,11.60
2022-12-25T13:34:33.193Z,11.67
2022-12-25T13:37:06.098Z,11.71
2022-12-25T13:39:34.790Z,11.34
2022-12-25T13:42:10.258Z,11.16
2022-12-25T13:44:39.738Z,11.17
2022-12-25T13:47:17.864Z,11.29
2022-12-25T13:49:45.696Z,11.46
2022-12-25T13:52:15.437Z,11.62
2022-12-25T13:55:00.835Z,11.48
2022-12-25T13:57:37.259Z,11.32
2022-12-25T14:00:07.256Z,11.21
2022-12-25T14:02:37.536Z,11.09
2022-12-25T14:05:22.088Z,11.34
2022-12-25T14:07:59.500Z,11.41
2022-12-25T14:10:34.764Z,11.21
2022-12-25T14:13:06.058Z,11.20
2022-12-25T14:15:36.478Z,11.22
2022-12-25T14:18:03.642Z,11.30
2022-12-25T14:20:37.049Z,11.30
2022-12-25T14:23:06.713Z,11.23
2022-12-25T14:25:45.855Z,11.06
2022-12-25T14:28:26.850Z,11.11
2022-12-25T14:30:54.731Z,11.13
2022-12-25T14:33:24.311Z,11.06
2022-12-25T14:35:51.722Z,11.09
2022-12-25T14:38:30.253Z,10.96
2022-12-25T14:41:05.434Z,10.86
2022-12-25T14:43:33.255Z,10.77
2022-12-25T14:46:03.115Z,10.95
2022-12-25T14:48:31.139Z,10.82
2022-12-25T14:51:08.526Z,10.93
2022-12-25T14:53:38.052Z,11.08
2022-12-25T14:56:06.765Z,11.07
2022-12-25T14:58:41.532Z,10.80
2022-12-25T15:01:21.889Z,10.67
2022-12-25T15:03:49.459Z,10.84
2022-12-25T15:06:22.863Z,10.93
2022-12-25T15:08:58.522Z,10.91
2022-12-25T15:11:25.591Z,10.90
2022-12-25T15:13:52.781Z,10.89
2022-12-25T15:16:24.734Z,10.78
2022-12-25T15:18:52.974Z,10.86
2022-12-25T15:21:28.690Z,10.83
2022-12-25T15:23:57.263Z,10.88
2022-12-25T15:26:24.980Z,10.81
2022-12-25T15:28:52.875Z,10.76
2022-12-25T15:31:25.595Z,10.76
2022-12-25T15:33:54.433Z,10.81
2022-12-25T15:36:25.650Z,10.90
2022-12-25T15:38:53.372Z,10.85
2022-12-25T15:41:42.839Z,10.86
2022-12-25T15:44:11.804Z,10.86
2022-12-25T15:46:38.994Z,10.75
2022-12-25T15:49:06.108Z,10.72
2022-12-25T15:51:33.652Z,10.75
2022-12-25T15:54:00.713Z,10.70
2022-12-25T15:56:28.432Z,10.76
2022-12-25T15:58:56.009Z,10.74
2022-12-25T16:01:25.558Z,10.74
2022-12-25T16:03:52.803Z,10.71
2022-12-25T16:06:19.666Z,10.73
2022-12-25T16:08:47.742Z,10.72
2022-12-25T16:11:14.570Z,10.67
2022-12-25T16:13:41.457Z,10.66
2022-12-25T16:16:08.516Z,10.64
2022-12-25T16:18:35.460Z,10.62
2022-12-25T16:21:02.521Z,10.63
2022-12-25T16:23:30.629Z,10.63
2022-12-25T16:25:57.757Z,10.58
2022-12-25T16:28:24.609Z,10.51
2022-12-25T16:30:51.480Z,10.48
2022-12-25T16:33:18.605Z,10.45
2022-12-25T16:35:45.458Z,10.45
2022-12-25T16:38:12.636Z,10.46
2022-12-25T16:40:39.664Z,10.40
2022-12-25T16:43:06.541Z,10.37
2022-12-25T16:45:37.950Z,10.32
2022-12-25T16:48:04.996Z,10.30
2022-12-25T16:50:31.905Z,10.27
2022-12-25T16:52:58.841Z,10.27
2022-12-25T16:55:29.893Z,10.26
2022-12-25T16:57:57.616Z,10.25
2022-12-25T17:00:24.775Z,10.21
2022-12-25T17:02:52.088Z,10.23
2022-12-25T17:05:19.056Z,10.12
2022-12-25T17:07:47.147Z,10.01
2022-12-25T17:10:14.085Z,9.93
2022-12-25T17:12:41.041Z,9.83
2022-12-25T17:15:08.856Z,9.73
2022-12-25T17:17:35.869Z,9.69
2022-12-25T17:20:02.735Z,9.63
2022-12-25T17:22:29.729Z,9.51
2022-12-25T17:24:56.676Z,9.47
2022-12-25T17:27:23.698Z,9.39
2022-12-25T17:29:50.578Z,9.34
2022-12-25T17:32:17.805Z,9.28
2022-12-25T17:34:44.635Z,9.32
2022-12-25T17:37:11.611Z,9.31
2022-12-25T17:39:39.743Z,9.45
2022-12-25T17:42:06.841Z,9.39
2022-12-25T17:44:33.686Z,9.40
2022-12-25T17:47:00.873Z,9.38
2022-12-25T17:49:27.757Z,9.31
2022-12-25T17:51:54.864Z,9.24
2022-12-25T17:54:22.069Z,9.25
2022-12-25T17:56:49.599Z,9.22
2022-12-25T17:59:18.943Z,9.23
2022-12-25T18:01:47.173Z,9.29
2022-12-25T18:04:14.250Z,9.21
2022-12-25T18:06:41.266Z,9.15
2022-12-25T18:09:09.915Z,9.06
2022-12-25T18:11:40.034Z,9.04
2022-12-25T18:14:08.049Z,9.03
2022-12-25T18:16:37.491Z,8.99
2022-12-25T18:19:04.947Z,8.98
2022-12-25T18:21:31.933Z,9.04
2022-12-25T18:23:58.871Z,9.16
2022-12-25T18:26:26.211Z,9.04
2022-12-25T18:28:53.136Z,9.01
2022-12-25T18:31:23.137Z,9.01
2022-12-25T18:33:50.029Z,8.90
2022-12-25T18:36:22.145Z,8.90
2022-12-25T18:38:50.505Z,8.78
2022-12-25T18:41:17.694Z,8.68
2022-12-25T18:43:53.693Z,8.59
2022-12-25T18:46:24.186Z,8.51
2022-12-25T18:48:51.451Z,8.45
2022-12-25T18:51:18.422Z,8.41
2022-12-25T18:53:45.340Z,8.37
2022-12-25T18:56:17.872Z,8.35
2022-12-25T18:58:46.667Z,8.36
2022-12-25T19:01:22.502Z,8.28
2022-12-25T19:03:50.999Z,8.21
2022-12-25T19:06:23.418Z,8.16
2022-12-25T19:08:50.621Z,8.14
2022-12-25T19:11:17.621Z,8.14
2022-12-25T19:13:45.482Z,8.08
2022-12-25T19:16:12.717Z,8.07
2022-12-25T19:18:40.033Z,8.07
2022-12-25T19:21:08.960Z,8.17
2022-12-25T19:23:38.075Z,8.06
2022-12-25T19:26:06.794Z,7.96
2022-12-25T19:28:33.824Z,7.89
2022-12-25T19:31:01.659Z,7.83
2022-12-25T19:33:31.151Z,7.90
2022-12-25T19:36:06.041Z,7.94
2022-12-25T19:38:33.318Z,8.01
2022-12-25T19:41:09.612Z,8.09
2022-12-25T19:43:39.106Z,8.05
2022-12-25T19:46:07.555Z,8.08
2022-12-25T19:48:35.110Z,8.00
2022-12-25T19:51:02.233Z,7.90
2022-12-25T19:53:30.035Z,8.00
2022-12-25T19:56:02.557Z,7.90
2022-12-25T19:58:30.209Z,7.87
2022-12-25T20:01:02.878Z,7.78
2022-12-25T20:03:29.971Z,7.74
2022-12-25T20:05:56.980Z,7.64
2022-12-25T20:08:24.291Z,7.57
2022-12-25T20:10:51.379Z,7.53
2022-12-25T20:13:18.268Z,7.46
2022-12-25T20:15:45.615Z,7.41
2022-12-25T20:18:12.481Z,7.50
2022-12-25T20:20:39.506Z,7.66
2022-12-25T20:23:06.849Z,7.50
2022-12-25T20:25:33.757Z,7.50
2022-12-25T20:28:00.638Z,7.44
2022-12-25T20:30:27.498Z,7.42
2022-12-25T20:32:55.405Z,7.36
2022-12-25T20:35:22.284Z,7.38
2022-12-25T20:37:49.361Z,7.32
2022-12-25T20:40:16.243Z,7.30
2022-12-25T20:42:43.668Z,7.31
2022-12-25T20:45:12.631Z,7.42
2022-12-25T20:47:39.533Z,7.35
2022-12-25T20:50:07.088Z,7.27
2022-12-25T20:52:34.090Z,7.20
2022-12-25T20:55:00.958Z,7.24
2022-12-25T20:57:28.689Z,7.16
2022-12-25T20:59:55.517Z,7.18
2022-12-25T21:02:33.660Z,7.10
2022-12-25T21:05:07.197Z,7.03
2022-12-25T21:07:34.176Z,6.99
2022-12-25T21:10:01.040Z,6.97
2022-12-25T21:12:27.984Z,7.05
2022-12-25T21:14:54.877Z,7.05
2022-12-25T21:17:21.873Z,7.00
2022-12-25T21:19:49.525Z,7.00
2022-12-25T21:22:16.381Z,6.89
2022-12-25T21:24:43.270Z,6.96
2022-12-25T21:27:10.193Z,6.93
2022-12-25T21:29:37.025Z,6.89
2022-12-25T21:32:36.402Z,6.84
2022-12-25T21:35:03.373Z,6.80
2022-12-25T21:37:31.984Z,6.78
2022-12-25T21:39:58.946Z,6.74
2022-12-25T21:42:25.802Z,6.65
2022-12-25T21:44:52.683Z,6.71
2022-12-25T21:47:19.706Z,6.69
2022-12-25T21:50:07.332Z,6.87
2022-12-25T21:52:35.919Z,6.88
2022-12-25T21:55:03.079Z,6.83
2022-12-25T21:57:29.946Z,6.97
2022-12-25T21:59:56.802Z,7.06
2022-12-25T22:02:23.884Z,6.97
2022-12-25T22:04:50.749Z,7.05
2022-12-25T22:07:17.649Z,6.89
2022-12-25T22:09:49.333Z,7.05
2022-12-25T22:12:36.954Z,7.09
2022-12-25T22:15:06.922Z,7.05
2022-12-25T22:17:54.004Z,7.09
2022-12-25T22:20:28.111Z,6.98
2022-12-25T22:22:55.135Z,6.88
2022-12-25T22:25:23.755Z,6.88
2022-12-25T22:27:51.688Z,6.80
2022-12-25T22:30:21.582Z,6.68
2022-12-25T22:32:49.002Z,6.64
2022-12-25T22:35:16.864Z,6.58
2022-12-25T22:37:44.083Z,6.56
2022-12-25T22:40:14.501Z,6.59
2022-12-25T22:42:42.407Z,6.61
2022-12-25T22:45:09.850Z,6.56
2022-12-25T22:47:36.976Z,6.53
2022-12-25T22:50:04.391Z,6.47
2022-12-25T22:52:31.387Z,6.46
2022-12-25T22:54:58.321Z,6.42
2022-12-25T22:57:25.280Z,6.71
2022-12-25T22:59:54.312Z,6.81
2022-12-25T23:02:21.765Z,6.99
2022-12-25T23:04:48.686Z,7.05
2022-12-25T23:07:16.031Z,6.97
2022-12-25T23:09:44.251Z,6.99
2022-12-25T23:12:31.834Z,7.01
2022-12-25T23:14:58.905Z,6.99
2022-12-25T23:17:44.367Z,6.93
2022-12-25T23:20:33.568Z,6.93
2022-12-25T23:23:19.873Z,6.86
2022-12-25T23:26:05.995Z,6.99
2022-12-25T23:28:51.420Z,6.96
2022-12-25T23:31:23.410Z,6.91
2022-12-25T23:33:54.150Z,6.83
2022-12-25T23:36:21.800Z,6.84
2022-12-25T23:38:50.135Z,6.81
2022-12-25T23:41:18.175Z,6.70
2022-12-25T23:43:44.955Z,6.68
2022-12-25T23:46:11.803Z,6.69
2022-12-25T23:48:39.654Z,6.69
2022-12-25T23:51:07.643Z,6.59
2022-12-25T23:53:35.220Z,6.53
2022-12-25T23:56:02.390Z,6.36
2022-12-25T23:58:29.463Z,6.38
